Time;durP1;ratioP1;P1;durP2;ratioP2;P2;SDS_P1;SDS_P2;PMS_P1;PMS_P2;Temp;Humidity;BMP_temperature;BMP_pressure;BME280_temperature;BME280_humidity;BME280_pressure;Samples;Min_cycle;Max_cycle;Signal;HPM_P1;HPM_P2
2022/03/20 00:00:54;;;;;;;1.58;0.80;;;18.80;28.90;;;;;;5093900;28;20028;-42
2022/03/20 00:03:21;;;;;;;2.00;1.10;;;18.80;29.00;;;;;;5094201;28;20478;-38
2022/03/20 00:05:48;;;;;;;2.45;0.90;;;18.80;29.40;;;;;;5096948;28;20024;-39
2022/03/20 00:08:14;;;;;;;2.28;1.00;;;18.80;29.00;;;;;;5098269;28;20023;-38
2022/03/20 00:10:45;;;;;;;2.10;1.00;;;18.80;29.00;;;;;;5099094;28;20085;-38
2022/03/20 00:13:11;;;;;;;2.35;1.13;;;18.80;29.00;;;;;;5081207;28;20032;-39
2022/03/20 00:15:41;;;;;;;1.75;1.00;;;18.80;29.10;;;;;;5100051;28;20106;-38
2022/03/20 00:18:08;;;;;;;1.45;0.90;;;18.70;29.10;;;;;;5081043;28;20066;-41
2022/03/20 00:20:35;;;;;;;1.67;0.80;;;18.80;29.20;;;;;;5099368;28;20040;-38
2022/03/20 00:23:07;;;;;;;2.42;0.90;;;18.70;29.10;;;;;;5099638;28;20534;-44
2022/03/20 00:25:41;;;;;;;1.85;1.00;;;18.80;29.20;;;;;;5082299;28;20032;-38
2022/03/20 00:28:06;;;;;;;1.60;0.80;;;18.70;29.10;;;;;;5098874;28;20016;-40
2022/03/20 00:30:32;;;;;;;3.13;1.10;;;18.80;29.20;;;;;;5079046;28;20385;-37
2022/03/20 00:32:58;;;;;;;1.88;0.80;;;18.70;29.20;;;;;;5096619;28;20012;-38
2022/03/20 00:35:24;;;;;;;2.60;1.00;;;18.70;29.20;;;;;;5096951;28;20074;-37
2022/03/20 00:37:50;;;;;;;1.15;0.70;;;18.70;29.30;;;;;;5078218;28;20359;-38
2022/03/20 00:40:16;;;;;;;1.90;0.90;;;18.70;29.30;;;;;;5096517;28;20016;-37
2022/03/20 00:42:41;;;;;;;1.70;0.80;;;18.70;29.30;;;;;;5078316;28;20470;-37
2022/03/20 00:45:07;;;;;;;1.80;1.00;;;18.70;29.30;;;;;;5096413;28;20351;-37
2022/03/20 00:47:33;;;;;;;2.72;1.13;;;18.70;29.30;;;;;;5096175;28;20031;-38
2022/03/20 00:49:59;;;;;;;1.88;1.00;;;18.70;29.80;;;;;;5078069;28;20020;-38
2022/03/20 00:52:25;;;;;;;2.22;0.80;;;18.70;29.40;;;;;;5077924;28;20531;-39
2022/03/20 00:54:51;;;;;;;2.47;0.90;;;18.70;29.40;;;;;;5096428;28;20109;-38
2022/03/20 00:57:17;;;;;;;2.03;1.10;;;18.70;29.50;;;;;;5096334;28;20058;-38
2022/03/20 00:59:43;;;;;;;2.25;1.02;;;18.70;29.50;;;;;;5078442;28;20016;-38
2022/03/20 01:02:09;;;;;;;2.05;0.95;;;18.60;29.50;;;;;;5078033;28;20049;-45
2022/03/20 01:04:35;;;;;;;3.20;1.13;;;18.70;29.60;;;;;;5096197;28;20012;-38
2022/03/20 01:07:03;;;;;;;1.48;0.80;;;18.60;29.50;;;;;;5096100;28;20024;-40
2022/03/20 01:09:29;;;;;;;2.78;0.90;;;18.70;29.60;;;;;;5095774;28;20012;-38
2022/03/20 01:11:55;;;;;;;2.50;0.90;;;18.70;29.60;;;;;;5077688;28;20053;-38
2022/03/20 01:14:22;;;;;;;1.52;0.90;;;18.70;29.60;;;;;;5077804;28;20023;-38
2022/03/20 01:16:48;;;;;;;2.03;0.98;;;18.70;29.70;;;;;;5094839;28;20016;-38
2022/03/20 01:19:15;;;;;;;1.83;1.00;;;18.70;29.70;;;;;;5095402;28;20012;-37
2022/03/20 01:21:41;;;;;;;1.77;0.98;;;18.60;29.70;;;;;;5095543;28;20028;-39
2022/03/20 01:24:08;;;;;;;1.77;1.00;;;18.60;29.70;;;;;;5077935;28;20027;-38
2022/03/20 01:26:36;;;;;;;1.33;0.82;;;18.70;29.80;;;;;;5096118;28;20012;-39
2022/03/20 01:29:04;;;;;;;3.00;1.40;;;18.70;29.80;;;;;;5096102;28;20107;-38
2022/03/20 01:31:35;;;;;;;2.67;1.10;;;18.60;29.80;;;;;;5097515;28;20028;-37
2022/03/20 01:34:00;;;;;;;;;;;18.60;29.80;;;;;;5098191;28;20016;-38
2022/03/20 01:36:26;;;;;;;1.90;0.90;;;18.60;29.80;;;;;;5097037;28;20350;-36
2022/03/20 01:38:52;;;;;;;2.50;1.00;;;18.60;29.80;;;;;;5078469;28;20546;-36
2022/03/20 01:41:19;;;;;;;2.60;1.00;;;18.60;29.80;;;;;;5096904;28;20089;-38
2022/03/20 01:43:54;;;;;;;1.52;0.98;;;18.60;29.90;;;;;;5096453;28;20462;-41
2022/03/20 01:46:20;;;;;;;1.73;1.02;;;18.60;29.90;;;;;;5096422;28;20077;-39
2022/03/20 01:48:46;;;;;;;2.38;0.90;;;18.60;29.90;;;;;;5096258;28;20012;-37
2022/03/20 01:51:12;;;;;;;2.58;1.08;;;18.60;29.90;;;;;;5096141;28;20039;-37
2022/03/20 01:53:39;;;;;;;2.28;1.00;;;18.50;29.90;;;;;;5096527;28;20470;-41
2022/03/20 01:56:05;;;;;;;3.22;1.20;;;18.60;30.00;;;;;;5096595;28;20089;-38
2022/03/20 01:58:34;;;;;;;3.13;1.08;;;18.50;30.00;;;;;;5096359;28;20012;-39
2022/03/20 02:01:01;;;;;;;1.98;1.00;;;18.60;30.00;;;;;;5079215;28;20028;-38
2022/03/20 02:03:26;;;;;;;1.90;1.05;;;18.60;30.00;;;;;;5096364;28;20016;-37
2022/03/20 02:05:53;;;;;;;1.60;0.90;;;18.60;30.00;;;;;;5096252;28;20012;-38
2022/03/20 02:08:25;;;;;;;2.65;1.00;;;18.60;30.00;;;;;;5095840;28;20028;-39
2022/03/20 02:10:51;;;;;;;4.07;1.20;;;18.60;30.00;;;;;;5095625;28;20073;-38
2022/03/20 02:13:21;;;;;;;2.03;0.90;;;18.50;30.00;;;;;;5077270;28;20047;-38
2022/03/20 02:15:49;;;;;;;2.05;1.10;;;18.50;30.00;;;;;;5096419;28;20048;-37
2022/03/20 02:18:15;;;;;;;2.05;1.20;;;18.60;30.00;;;;;;5097104;28;20004;-38
2022/03/20 02:20:47;;;;;;;2.20;1.27;;;18.60;30.00;;;;;;5097174;28;20098;-38
2022/03/20 02:23:17;;;;;;;2.20;1.10;;;18.50;30.00;;;;;;5096833;28;20474;-37
2022/03/20 02:25:50;;;;;;;2.00;1.10;;;18.50;30.00;;;;;;5097075;28;20047;-37
2022/03/20 02:28:16;;;;;;;3.28;1.25;;;18.50;30.10;;;;;;5096281;28;20024;-37
2022/03/20 02:30:42;;;;;;;1.45;0.80;;;18.50;30.10;;;;;;5097283;28;20098;-38
2022/03/20 02:33:08;;;;;;;2.38;1.13;;;18.50;30.20;;;;;;5097805;28;20012;-37
2022/03/20 02:35:35;;;;;;;2.10;1.10;;;18.50;30.20;;;;;;5079502;28;20481;-38
2022/03/20 02:38:01;;;;;;;2.20;1.02;;;18.50;30.20;;;;;;5097656;28;20457;-37
2022/03/20 02:40:27;;;;;;;2.22;1.17;;;18.50;30.20;;;;;;5079763;28;20497;-38
2022/03/20 02:42:54;;;;;;;2.35;1.20;;;18.50;30.20;;;;;;5080090;28;20091;-42
2022/03/20 02:45:30;;;;;;;1.77;0.95;;;18.50;30.20;;;;;;5095778;28;20012;-38
2022/03/20 02:47:57;;;;;;;2.40;1.25;;;18.50;30.30;;;;;;5077512;28;20028;-41
2022/03/20 02:50:29;;;;;;;2.50;1.20;;;18.50;30.30;;;;;;5094850;28;20026;-39
2022/03/20 02:52:58;;;;;;;2.83;1.20;;;18.50;30.30;;;;;;5076825;28;20043;-40
2022/03/20 02:55:37;;;;;;;3.15;1.63;;;18.50;30.40;;;;;;5095190;28;20013;-38
2022/03/20 02:58:14;;;;;;;1.65;1.10;;;18.40;30.40;;;;;;5095273;28;20023;-39
2022/03/20 03:00:41;;;;;;;2.17;1.10;;;18.50;30.30;;;;;;5095410;28;20012;-40
2022/03/20 03:03:08;;;;;;;2.25;1.20;;;18.50;30.40;;;;;;5095034;28;20024;-40
2022/03/20 03:05:34;;;;;;;3.50;1.08;;;18.40;30.40;;;;;;5094683;28;20016;-39
2022/03/20 03:10:59;;;;;;;2.80;1.23;;;18.40;30.40;;;;;;5094303;28;20120;-38
2022/03/20 03:13:37;;;;;;;;;;;18.40;30.40;;;;;;5078634;28;20044;-38
2022/03/20 03:16:05;;;;;;;2.03;1.10;;;18.40;30.50;;;;;;5097327;28;19904;-38
2022/03/20 03:18:30;;;;;;;2.10;1.20;;;18.40;30.50;;;;;;5097630;28;20019;-38
2022/03/20 03:20:56;;;;;;;2.88;1.40;;;18.30;30.50;;;;;;5079193;28;20111;-39
2022/03/20 03:23:24;;;;;;;1.77;1.13;;;18.30;30.50;;;;;;5097044;28;20044;-39
2022/03/20 03:25:50;;;;;;;2.30;1.20;;;18.40;30.50;;;;;;5079549;28;20065;-39
2022/03/20 03:28:16;;;;;;;2.42;1.20;;;18.40;30.50;;;;;;5096018;28;20540;-43
2022/03/20 03:30:45;;;;;;;4.07;1.52;;;18.40;30.50;;;;;;5078541;28;20032;-39
2022/03/20 03:33:12;;;;;;;2.50;1.30;;;18.40;30.50;;;;;;5097327;28;20009;-41
2022/03/20 03:35:41;;;;;;;2.40;1.33;;;18.30;30.60;;;;;;5095945;28;20012;-44
2022/03/20 03:38:17;;;;;;;3.13;1.40;;;18.30;30.60;;;;;;5095734;28;20038;-41
2022/03/20 03:40:45;;;;;;;2.17;1.30;;;18.30;30.60;;;;;;5095414;28;20016;-38
2022/03/20 03:43:11;;;;;;;2.70;1.42;;;18.30;30.60;;;;;;5095528;28;20036;-39
2022/03/20 03:45:39;;;;;;;1.77;1.25;;;18.30;30.60;;;;;;5095314;28;20012;-41
2022/03/20 03:48:05;;;;;;;2.42;1.67;;;18.30;30.60;;;;;;5077508;28;20024;-44
2022/03/20 03:50:31;;;;;;;1.95;1.30;;;18.30;30.60;;;;;;5095008;28;20035;-39
2022/03/20 03:52:57;;;;;;;3.13;1.40;;;18.30;30.60;;;;;;5094614;28;20077;-38
2022/03/20 03:55:23;;;;;;;3.70;1.75;;;18.30;30.60;;;;;;5095050;28;20024;-39
2022/03/20 03:57:50;;;;;;;2.70;1.48;;;18.30;30.70;;;;;;5077370;28;20019;-39
2022/03/20 04:00:16;;;;;;;2.35;1.38;;;18.30;30.70;;;;;;5096280;28;20075;-44
2022/03/20 04:02:42;;;;;;;3.85;1.70;;;18.30;30.60;;;;;;5077731;28;20024;-38
2022/03/20 04:05:08;;;;;;;3.50;1.60;;;18.30;30.70;;;;;;5095909;28;20012;-39
2022/03/20 04:07:35;;;;;;;2.20;1.50;;;18.30;30.80;;;;;;5077388;28;20019;-41
2022/03/20 04:10:05;;;;;;;3.70;2.08;;;18.30;30.80;;;;;;5095098;28;20013;-38
2022/03/20 04:12:31;;;;;;;3.00;1.48;;;18.20;30.80;;;;;;5077474;28;20032;-38
2022/03/20 04:15:02;;;;;;;3.58;1.80;;;18.20;30.70;;;;;;5076153;28;20055;-38
2022/03/20 04:17:29;;;;;;;2.80;1.50;;;18.30;30.80;;;;;;5093434;28;20082;-36
2022/03/20 04:19:56;;;;;;;2.88;1.70;;;18.30;30.80;;;;;;5075789;28;20017;-36
2022/03/20 04:22:22;;;;;;;2.80;1.70;;;18.20;30.80;;;;;;5093460;28;20090;-36
2022/03/20 04:24:50;;;;;;;3.10;1.80;;;18.20;30.80;;;;;;5093193;28;20478;-36
2022/03/20 04:27:16;;;;;;;3.38;2.03;;;18.20;30.80;;;;;;5093032;28;20470;-36
2022/03/20 04:29:42;;;;;;;3.13;1.85;;;18.20;30.80;;;;;;5094284;28;20030;-37
2022/03/20 04:32:09;;;;;;;2.70;1.80;;;18.20;30.80;;;;;;5077358;28;20081;-37
2022/03/20 04:34:35;;;;;;;3.38;1.95;;;18.20;30.80;;;;;;5094511;28;20035;-37
2022/03/20 04:37:06;;;;;;;3.80;2.13;;;18.20;30.90;;;;;;5077137;28;20016;-36
2022/03/20 04:39:33;;;;;;;3.15;1.80;;;18.20;30.90;;;;;;5077846;28;20084;-37
2022/03/20 04:41:59;;;;;;;3.85;1.90;;;18.20;30.80;;;;;;5077595;28;20024;-36
2022/03/20 04:44:25;;;;;;;3.30;2.00;;;18.20;30.90;;;;;;5095221;28;20035;-38
2022/03/20 04:46:51;;;;;;;3.33;1.80;;;18.10;30.90;;;;;;5095184;28;20028;-39
2022/03/20 05:00:15;;;;;;;3.45;2.20;;;18.10;30.90;;;;;;5099050;28;20504;-39
2022/03/20 05:02:41;;;;;;;4.45;2.20;;;18.10;30.90;;;;;;5099290;28;20020;-39
2022/03/20 05:05:09;;;;;;;3.13;2.00;;;18.10;30.90;;;;;;5098902;28;20016;-39
2022/03/20 05:07:35;;;;;;;3.17;2.00;;;18.10;31.00;;;;;;5098463;28;20382;-39
2022/03/20 05:15:30;;;;;;;3.10;2.28;;;18.10;31.00;;;;;;5100318;28;20031;-37
2022/03/20 05:17:56;;;;;;;4.28;2.50;;;18.10;31.00;;;;;;5099140;28;20035;-39
2022/03/20 05:20:23;;;;;;;3.00;2.30;;;18.10;30.90;;;;;;5099214;28;20056;-39
2022/03/20 05:22:50;;;;;;;4.03;2.60;;;18.10;30.90;;;;;;5098460;28;20031;-39
2022/03/20 05:25:16;;;;;;;4.10;2.80;;;18.10;31.00;;;;;;5098695;28;20099;-39
2022/03/20 05:27:42;;;;;;;4.05;2.90;;;18.10;31.00;;;;;;5079785;28;20045;-38
2022/03/20 05:30:08;;;;;;;3.78;2.67;;;18.10;31.00;;;;;;5079041;28;20415;-38
2022/03/20 05:32:35;;;;;;;4.13;2.58;;;18.10;30.90;;;;;;5078276;28;20020;-38
2022/03/20 05:35:06;;;;;;;4.15;2.80;;;18.10;31.00;;;;;;5096510;28;20508;-38
2022/03/20 05:37:32;;;;;;;4.10;2.83;;;18.10;30.90;;;;;;5096398;28;20056;-39
2022/03/20 05:39:58;;;;;;;4.22;2.88;;;18.10;31.00;;;;;;5097476;28;20016;-38
2022/03/20 05:42:24;;;;;;;4.43;2.80;;;18.10;31.00;;;;;;5097262;28;20016;-39
2022/03/20 05:44:51;;;;;;;3.45;2.63;;;18.00;30.90;;;;;;5096876;28;20480;-39
2022/03/20 05:47:17;;;;;;;3.80;2.50;;;18.10;30.90;;;;;;5077783;28;20505;-39
2022/03/20 05:49:43;;;;;;;4.55;2.70;;;18.10;30.90;;;;;;5077970;28;20020;-38
2022/03/20 05:52:08;;;;;;;4.20;2.70;;;18.10;31.00;;;;;;5095792;28;20055;-41
2022/03/20 05:54:35;;;;;;;4.05;2.78;;;18.10;30.90;;;;;;5095819;28;20539;-40
2022/03/20 05:59:46;;;;;;;4.07;2.78;;;18.10;31.00;;;;;;5079769;28;20082;-39
2022/03/20 06:02:11;;;;;;;4.53;2.85;;;18.10;31.00;;;;;;5076779;28;20028;-40
2022/03/20 06:04:38;;;;;;;3.83;2.50;;;18.10;31.00;;;;;;5094609;28;20439;-39
2022/03/20 06:07:04;;;;;;;4.53;2.60;;;18.10;31.10;;;;;;5094821;28;20028;-40
2022/03/20 06:09:31;;;;;;;3.70;2.83;;;18.10;31.00;;;;;;5076600;28;20470;-39
2022/03/20 06:11:57;;;;;;;4.18;3.10;;;18.10;31.00;;;;;;5094524;28;20173;-38
2022/03/20 06:14:23;;;;;;;4.18;3.22;;;18.10;31.10;;;;;;5076236;28;20048;-39
2022/03/20 06:16:49;;;;;;;5.35;3.00;;;18.10;31.10;;;;;;5076380;28;20474;-42
2022/03/20 06:19:16;;;;;;;4.10;3.20;;;18.00;31.10;;;;;;5094614;28;20031;-38
2022/03/20 06:21:42;;;;;;;4.75;3.03;;;18.00;31.10;;;;;;5094779;28;20033;-39
2022/03/20 06:24:08;;;;;;;4.53;3.10;;;18.00;31.10;;;;;;5094570;28;20028;-39
2022/03/20 06:26:35;;;;;;;5.63;3.35;;;18.00;31.10;;;;;;5094706;28;20359;-38
2022/03/20 06:29:02;;;;;;;4.80;3.10;;;18.00;31.10;;;;;;5095791;28;20024;-39
2022/03/20 06:31:28;;;;;;;5.43;3.30;;;18.00;31.10;;;;;;5095293;28;20047;-39
2022/03/20 06:33:54;;;;;;;5.60;3.38;;;18.00;31.10;;;;;;5077274;28;20008;-41
2022/03/20 06:36:19;;;;;;;4.28;3.22;;;18.00;31.10;;;;;;5095278;28;20046;-39
2022/03/20 06:38:46;;;;;;;4.50;3.55;;;18.00;31.10;;;;;;5094952;28;20501;-39
2022/03/20 06:41:11;;;;;;;5.05;3.50;;;18.00;31.20;;;;;;5094547;28;20064;-41
2022/03/20 06:43:37;;;;;;;4.40;3.28;;;18.00;31.20;;;;;;5076400;28;20043;-40
2022/03/20 06:46:04;;;;;;;3.85;3.00;;;18.00;31.10;;;;;;5095611;28;20531;-43
2022/03/20 06:48:30;;;;;;;4.30;3.15;;;18.00;31.20;;;;;;5096019;28;20016;-41
2022/03/20 06:50:56;;;;;;;5.93;3.70;;;18.00;31.20;;;;;;5077509;28;20394;-40
2022/03/20 06:53:22;;;;;;;5.53;3.40;;;18.00;31.20;;;;;;5096510;28;20015;-42
2022/03/20 06:55:48;;;;;;;5.13;3.33;;;18.00;31.20;;;;;;5097520;28;20011;-45
2022/03/20 06:58:14;;;;;;;5.47;3.45;;;18.00;31.20;;;;;;5097839;28;20048;-45
2022/03/20 07:00:40;;;;;;;5.57;3.83;;;18.00;31.20;;;;;;5061825;28;20073;-44
2022/03/20 07:03:08;;;;;;;5.13;3.40;;;18.00;31.20;;;;;;5096188;28;20575;-45
2022/03/20 07:05:34;;;;;;;5.13;3.60;;;18.00;31.20;;;;;;5078324;28;20063;-43
2022/03/20 07:08:00;;;;;;;6.72;3.60;;;18.00;31.20;;;;;;5095665;28;20024;-40
2022/03/20 07:10:27;;;;;;;4.97;3.92;;;18.10;31.20;;;;;;5078229;28;20057;-48
2022/03/20 07:15:39;;;;;;;5.47;3.55;;;18.00;31.10;;;;;;5055201;28;20040;-44
2022/03/20 07:18:05;;;;;;;4.80;3.50;;;18.00;31.20;;;;;;5079072;28;20042;-39
2022/03/20 07:20:31;;;;;;;4.75;3.70;;;18.00;31.40;;;;;;5096678;28;20012;-40
2022/03/20 07:23:00;;;;;;;5.00;3.70;;;18.00;31.30;;;;;;5096197;28;20023;-39
2022/03/20 07:30:56;;;;;;;4.93;3.88;;;18.00;31.40;;;;;;5080074;28;20514;-40
2022/03/20 07:33:25;;;;;;;5.43;4.00;;;17.90;31.30;;;;;;5095591;28;20470;-40
2022/03/20 07:35:52;;;;;;;4.73;3.73;;;18.00;31.40;;;;;;5095283;28;20016;-39
2022/03/20 07:38:17;;;;;;;5.90;4.05;;;18.00;31.30;;;;;;5095283;28;20019;-43
2022/03/20 07:40:44;;;;;;;4.85;3.78;;;18.00;31.30;;;;;;5095202;28;20379;-39
2022/03/20 07:43:09;;;;;;;5.10;3.92;;;18.00;31.30;;;;;;5077581;28;20046;-40
2022/03/20 07:45:36;;;;;;;4.95;3.80;;;18.00;31.30;;;;;;5095836;28;20028;-39
2022/03/20 07:48:02;;;;;;;6.40;3.90;;;18.00;31.40;;;;;;5094776;28;20022;-39
2022/03/20 07:50:28;;;;;;;4.93;4.00;;;18.00;31.40;;;;;;5077635;28;20028;-39
2022/03/20 07:52:56;;;;;;;7.18;4.28;;;17.90;31.40;;;;;;5095281;28;20023;-39
2022/03/20 07:55:23;;;;;;;5.93;4.05;;;18.00;31.40;;;;;;5077197;28;20043;-39
2022/03/20 07:57:49;;;;;;;5.55;4.20;;;17.90;31.40;;;;;;5094207;28;20099;-39
2022/03/20 08:00:16;;;;;;;5.72;4.38;;;17.90;31.40;;;;;;5095098;28;20047;-40
2022/03/20 08:02:42;;;;;;;6.38;4.20;;;18.00;31.50;;;;;;5077088;28;20016;-40
2022/03/20 08:05:09;;;;;;;5.03;4.13;;;18.00;31.40;;;;;;5077693;28;20016;-39
2022/03/20 08:07:38;;;;;;;5.90;4.22;;;18.00;31.50;;;;;;5095410;28;20019;-40
2022/03/20 08:10:11;;;;;;;5.85;4.47;;;18.00;32.00;;;;;;5078159;28;20020;-38
2022/03/20 08:12:37;;;;;;;6.63;4.35;;;17.90;31.50;;;;;;5096280;28;20101;-39
2022/03/20 08:15:03;;;;;;;7.50;4.38;;;17.90;31.60;;;;;;5094906;28;20467;-39
2022/03/20 08:17:31;;;;;;;6.13;4.22;;;17.90;31.70;;;;;;5075124;28;20020;-38
2022/03/20 08:19:58;;;;;;;6.35;4.65;;;17.90;31.70;;;;;;5092215;28;20023;-39
2022/03/20 08:22:27;;;;;;;5.30;4.25;;;17.90;31.60;;;;;;5093052;28;20020;-38
2022/03/20 08:24:55;;;;;;;5.90;4.68;;;17.90;31.70;;;;;;5075891;28;20028;-39
2022/03/20 08:27:21;;;;;;;6.30;4.60;;;17.90;31.70;;;;;;5095899;28;20020;-38
2022/03/20 08:29:47;;;;;;;6.85;4.47;;;17.90;31.60;;;;;;5078689;28;20020;-38
2022/03/20 08:32:13;;;;;;;6.13;4.78;;;17.90;31.60;;;;;;5096481;28;20485;-39
2022/03/20 08:34:40;;;;;;;5.95;4.45;;;17.90;31.70;;;;;;5078559;28;20035;-39
2022/03/20 08:37:05;;;;;;;5.85;4.68;;;17.90;31.60;;;;;;5078694;28;20009;-39
2022/03/20 08:39:31;;;;;;;6.95;4.72;;;17.90;31.70;;;;;;5096992;28;20048;-39
2022/03/20 08:41:57;;;;;;;5.15;4.38;;;17.90;31.70;;;;;;5097147;28;20513;-39
2022/03/20 08:44:26;;;;;;;6.10;4.45;;;17.90;31.60;;;;;;5079241;28;20020;-39
2022/03/20 08:46:52;;;;;;;6.03;4.80;;;17.90;31.60;;;;;;5079561;28;20024;-38
2022/03/20 08:49:18;;;;;;;6.30;4.70;;;17.90;31.70;;;;;;5097905;28;20065;-40
2022/03/20 08:51:44;;;;;;;5.68;4.90;;;17.90;31.70;;;;;;5079276;28;20047;-40
2022/03/20 08:54:11;;;;;;;6.40;4.50;;;17.90;31.70;;;;;;5097808;28;20016;-40
2022/03/20 08:56:37;;;;;;;6.78;4.93;;;17.90;31.70;;;;;;5097557;28;20013;-40
2022/03/20 08:59:03;;;;;;;6.65;4.65;;;17.90;31.70;;;;;;5080183;28;20103;-39
2022/03/20 09:01:30;;;;;;;5.80;4.80;;;18.00;32.30;;;;;;5097155;28;20535;-43
2022/03/20 09:03:55;;;;;;;5.60;4.53;;;18.00;31.70;;;;;;5079124;28;20048;-43
2022/03/20 09:06:22;;;;;;;5.00;4.50;;;18.00;31.60;;;;;;5079252;28;20039;-40
2022/03/20 09:08:49;;;;;;;6.40;4.45;;;18.10;31.60;;;;;;5097585;28;20024;-41
2022/03/20 09:11:15;;;;;;;6.50;4.85;;;18.10;31.60;;;;;;5079155;28;20024;-41
2022/03/20 09:13:41;;;;;;;7.47;5.13;;;18.20;31.50;;;;;;5096444;28;20114;-40
2022/03/20 09:19:01;;;;;;;5.72;4.75;;;18.30;31.30;;;;;;5101357;28;20039;-43
2022/03/20 09:21:27;;;;;;;6.00;5.22;;;18.40;31.20;;;;;;5100820;28;20023;-43
2022/03/20 09:23:53;;;;;;;5.63;4.68;;;18.40;31.20;;;;;;5101042;28;20077;-45
2022/03/20 09:26:19;;;;;;;7.07;5.00;;;18.50;31.20;;;;;;5101806;28;20023;-42
2022/03/20 09:28:45;;;;;;;7.63;4.80;;;18.50;31.20;;;;;;5101407;28;20053;-43
2022/03/20 09:31:13;;;;;;;6.03;4.93;;;18.50;31.20;;;;;;5099733;28;20024;-44
2022/03/20 09:33:39;;;;;;;6.40;4.88;;;18.50;31.10;;;;;;5099587;28;20065;-42
2022/03/20 09:36:04;;;;;;;6.03;5.15;;;18.60;31.10;;;;;;5081726;28;20088;-39
2022/03/20 09:38:31;;;;;;;7.10;5.20;;;18.60;31.10;;;;;;5098538;28;20019;-46
2022/03/20 09:40:58;;;;;;;7.07;5.03;;;18.60;31.10;;;;;;5099320;28;20024;-44
2022/03/20 09:43:25;;;;;;;6.38;5.00;;;18.70;31.10;;;;;;5082135;28;20022;-42
2022/03/20 09:45:52;;;;;;;5.82;4.72;;;18.70;31.00;;;;;;5100248;28;20470;-44
2022/03/20 09:48:18;;;;;;;5.82;4.63;;;18.80;31.00;;;;;;5083101;28;20430;-40
2022/03/20 09:50:44;;;;;;;5.72;5.10;;;18.90;31.00;;;;;;5081341;28;20051;-39
2022/03/20 09:53:10;;;;;;;5.75;4.72;;;19.00;31.00;;;;;;5082135;28;20020;-40
2022/03/20 09:55:36;;;;;;;5.72;4.80;;;19.10;31.00;;;;;;5099438;28;20019;-38
2022/03/20 09:58:02;;;;;;;6.07;4.78;;;19.20;30.60;;;;;;5099452;28;20382;-38
2022/03/20 10:00:28;;;;;;;5.65;4.85;;;19.20;30.50;;;;;;5098181;28;20036;-40
2022/03/20 10:02:54;;;;;;;5.45;4.68;;;19.30;30.60;;;;;;5097605;28;20013;-39
2022/03/20 10:05:21;;;;;;;4.97;4.47;;;19.40;30.40;;;;;;5097448;28;20039;-38
2022/03/20 10:07:48;;;;;;;5.80;4.80;;;19.40;30.30;;;;;;5096835;28;20015;-39
2022/03/20 10:10:18;;;;;;;5.40;4.50;;;19.50;30.30;;;;;;5096983;28;20091;-41
2022/03/20 10:12:49;;;;;;;6.53;5.50;;;19.50;30.30;;;;;;5096573;28;20058;-41
2022/03/20 10:15:30;;;;;;;6.63;4.80;;;19.60;30.30;;;;;;5096290;28;20012;-41
2022/03/20 10:18:16;;;;;;;5.80;4.90;;;19.60;30.20;;;;;;5078991;28;20016;-40
2022/03/20 10:20:59;;;;;;;6.15;4.80;;;19.60;30.10;;;;;;5079041;28;20020;-39
2022/03/20 10:23:34;;;;;;;6.65;4.72;;;19.70;30.20;;;;;;5097223;28;20012;-38
2022/03/20 10:26:05;;;;;;;5.35;4.85;;;19.70;30.20;;;;;;5096759;28;20021;-40
2022/03/20 10:28:39;;;;;;;6.32;4.95;;;19.80;30.10;;;;;;5096687;28;20020;-39
2022/03/20 10:31:07;;;;;;;6.63;5.22;;;19.80;30.10;;;;;;5096647;28;20039;-39
2022/03/20 10:33:40;;;;;;;6.55;5.35;;;19.80;30.10;;;;;;5096134;28;20016;-40
2022/03/20 10:36:15;;;;;;;5.85;5.15;;;19.90;30.10;;;;;;5079744;28;20034;-41
2022/03/20 10:38:42;;;;;;;6.97;4.97;;;19.90;30.10;;;;;;5096246;28;20016;-38
2022/03/20 10:41:21;;;;;;;6.03;5.10;;;19.90;30.10;;;;;;5096747;28;20036;-38
2022/03/20 10:43:48;;;;;;;5.77;5.10;;;20.00;30.10;;;;;;5096821;28;20016;-40
2022/03/20 10:46:21;;;;;;;6.45;5.30;;;20.00;30.10;;;;;;5096137;28;20016;-40
2022/03/20 10:48:49;;;;;;;6.65;5.28;;;20.00;30.10;;;;;;5076822;28;20012;-39
2022/03/20 10:51:24;;;;;;;6.47;5.57;;;20.00;30.10;;;;;;5095277;28;20036;-41
2022/03/20 10:53:58;;;;;;;7.03;5.22;;;20.00;30.10;;;;;;5079254;28;20016;-38
2022/03/20 10:56:24;;;;;;;5.97;5.25;;;20.00;30.10;;;;;;5095976;28;20013;-40
2022/03/20 10:58:50;;;;;;;6.50;5.68;;;20.00;30.10;;;;;;5094846;28;20378;-38
2022/03/20 11:01:17;;;;;;;7.03;5.40;;;20.00;30.10;;;;;;5095131;28;20016;-38
2022/03/20 11:03:42;;;;;;;5.97;5.30;;;20.00;30.20;;;;;;5093882;28;20043;-38
2022/03/20 11:06:10;;;;;;;6.60;5.30;;;20.00;30.20;;;;;;5075500;28;20031;-38
2022/03/20 11:08:39;;;;;;;6.53;5.50;;;20.10;30.30;;;;;;5093471;28;20046;-37
2022/03/20 11:11:05;;;;;;;7.30;5.45;;;20.00;30.20;;;;;;5075819;28;20024;-38
2022/03/20 11:13:33;;;;;;;6.80;5.70;;;20.10;30.30;;;;;;5075491;28;20131;-39
2022/03/20 11:16:00;;;;;;;6.32;5.55;;;20.10;30.40;;;;;;5075746;28;20083;-39
2022/03/20 11:18:26;;;;;;;6.93;5.40;;;20.10;30.40;;;;;;5058896;28;20088;-39
2022/03/20 11:20:52;;;;;;;6.68;5.55;;;20.10;30.40;;;;;;5075593;28;20020;-39
2022/03/20 11:23:18;;;;;;;6.45;5.43;;;20.10;30.40;;;;;;5093657;28;20027;-40
2022/03/20 11:25:45;;;;;;;6.60;5.72;;;20.00;30.40;;;;;;5075734;28;20012;-39
2022/03/20 11:28:11;;;;;;;6.47;5.60;;;20.10;30.40;;;;;;5093649;28;20036;-39
2022/03/20 11:30:38;;;;;;;6.40;5.57;;;20.00;30.40;;;;;;5093112;28;20100;-40
2022/03/20 11:33:04;;;;;;;6.97;5.45;;;20.00;30.50;;;;;;5075288;28;20020;-41
2022/03/20 11:35:34;;;;;;;6.00;5.40;;;19.90;30.60;;;;;;5075385;28;20061;-43
2022/03/20 11:38:20;;;;;;;5.97;5.38;;;20.00;30.60;;;;;;5093414;28;20095;-41
2022/03/20 11:41:16;;;;;;;6.22;5.50;;;19.90;30.70;;;;;;5093277;28;20020;-41
2022/03/20 11:43:45;;;;;;;6.32;5.50;;;19.90;30.70;;;;;;5093633;28;20020;-49
2022/03/20 11:46:25;;;;;;;6.75;5.90;;;19.90;30.80;;;;;;5095326;28;20017;-42
2022/03/20 11:49:29;;;;;;;6.43;5.32;;;19.80;30.90;;;;;;5096108;28;20077;-49
2022/03/20 11:52:07;;;;;;;5.97;5.05;;;19.80;31.00;;;;;;5014758;28;20068;-42
2022/03/20 11:54:53;;;;;;;6.15;5.55;;;19.80;31.00;;;;;;5015865;28;20527;-46
2022/03/20 11:57:28;;;;;;;6.22;5.45;;;19.70;31.10;;;;;;5015141;28;20034;-49
2022/03/20 11:59:54;;;;;;;7.38;5.80;;;19.80;31.20;;;;;;5015061;28;20135;-40
2022/03/20 12:02:23;;;;;;;7.07;6.00;;;19.70;31.20;;;;;;5017282;28;20030;-39
2022/03/20 12:05:18;;;;;;;6.60;5.78;;;19.70;31.20;;;;;;5001389;28;20033;-45
2022/03/20 12:08:19;;;;;;;7.25;5.38;;;19.70;31.30;;;;;;5016752;28;20022;-40
2022/03/20 12:11:13;;;;;;;7.45;5.90;;;19.60;31.40;;;;;;5013790;28;20084;-39
2022/03/20 12:13:44;;;;;;;7.05;5.50;;;19.60;31.40;;;;;;5014336;28;20100;-40
2022/03/20 12:16:10;;;;;;;7.40;6.10;;;19.60;31.40;;;;;;5017832;28;20029;-41
2022/03/20 12:19:13;;;;;;;6.93;5.80;;;19.60;31.40;;;;;;5017858;28;20037;-40
2022/03/20 12:21:54;;;;;;;6.53;5.70;;;19.70;31.60;;;;;;5017800;28;20041;-40
2022/03/20 12:24:35;;;;;;;6.95;5.93;;;19.60;31.50;;;;;;5017571;28;20034;-39
2022/03/20 12:27:20;;;;;;;6.82;6.13;;;19.70;31.60;;;;;;5098780;28;20043;-40
2022/03/20 12:29:47;;;;;;;7.97;6.07;;;19.60;31.60;;;;;;5100346;28;20020;-45
2022/03/20 12:32:13;;;;;;;6.60;5.70;;;19.60;31.60;;;;;;5100127;28;20016;-40
2022/03/20 12:34:41;;;;;;;6.70;5.85;;;19.60;31.60;;;;;;5100865;28;20087;-41
2022/03/20 12:37:39;;;;;;;6.78;6.07;;;19.60;31.70;;;;;;5100492;28;20068;-41
2022/03/20 12:40:30;;;;;;;8.73;6.45;;;19.60;31.70;;;;;;5101955;28;20016;-47
2022/03/20 12:43:10;;;;;;;7.03;6.00;;;19.60;31.80;;;;;;5101828;28;20043;-40
2022/03/20 12:45:36;;;;;;;8.38;6.15;;;19.50;31.90;;;;;;5102494;28;20045;-40
2022/03/20 12:48:13;;;;;;;6.80;5.97;;;19.50;31.90;;;;;;5101671;28;20015;-40
2022/03/20 12:50:40;;;;;;;7.05;6.13;;;19.50;32.00;;;;;;5102072;28;20016;-42
2022/03/20 12:53:19;;;;;;;7.35;6.20;;;19.50;32.00;;;;;;5101537;28;20031;-43
2022/03/20 12:56:02;;;;;;;7.00;6.25;;;19.50;32.10;;;;;;5098243;28;20024;-41
2022/03/20 12:58:28;;;;;;;7.47;6.25;;;19.40;32.10;;;;;;5100067;28;20019;-41
2022/03/20 13:00:55;;;;;;;6.93;5.95;;;19.40;32.20;;;;;;5082104;28;20027;-39
2022/03/20 13:03:21;;;;;;;6.38;5.50;;;19.40;32.30;;;;;;5100204;28;20020;-39
2022/03/20 13:06:00;;;;;;;6.95;6.25;;;19.40;32.30;;;;;;5100440;28;20019;-39
2022/03/20 13:08:26;;;;;;;7.95;6.25;;;19.30;32.40;;;;;;5100350;28;20382;-38
2022/03/20 13:10:53;;;;;;;8.02;6.60;;;19.30;32.60;;;;;;5100030;28;20047;-38
2022/03/20 13:13:23;;;;;;;7.68;6.50;;;19.30;32.60;;;;;;5099604;28;20221;-39
2022/03/20 13:15:49;;;;;;;8.13;6.63;;;19.30;32.60;;;;;;5099594;28;20054;-39
2022/03/20 13:18:15;;;;;;;7.93;6.45;;;19.20;32.60;;;;;;5099744;28;20024;-40
2022/03/20 13:20:45;;;;;;;9.57;6.57;;;19.30;32.70;;;;;;5098856;28;20052;-40
2022/03/20 13:23:12;;;;;;;7.77;6.13;;;19.20;33.20;;;;;;5099675;28;20008;-40
2022/03/20 13:25:43;;;;;;;7.65;6.80;;;19.20;32.60;;;;;;5099715;28;20254;-38
2022/03/20 13:28:29;;;;;;;7.70;6.32;;;19.20;32.80;;;;;;5099759;28;20024;-40